Time;durP1;ratioP1;P1;durP2;ratioP2;P2;SDS_P1;SDS_P2;PMS_P1;PMS_P2;Temp;Humidity;BMP_temperature;BMP_pressure;BME280_temperature;BME280_humidity;BME280_pressure;Samples;Min_cycle;Max_cycle;Signal;HPM_P1;HPM_P2
2023/08/29 00:01:04;;;;;;;;;;;;;;;16.27;66.73;99207.63;1087302;47;19974;-79
2023/08/29 00:02:05;;;;;;;;;;;;;;;16.21;66.92;99214.63;1088253;39;20219;-79
2023/08/29 00:03:08;;;;;;;;;;;;;;;16.21;66.98;99204.69;1087235;47;19942;-78
2023/08/29 00:04:09;;;;;;;;;;;;;;;16.22;67.13;99203.66;1087326;47;19947;-79
2023/08/29 00:05:13;;;;;;;;;;;;;;;16.23;67.20;99201.78;1087275;54;19945;-80
2023/08/29 00:06:13;;;;;;;;;;;;;;;16.27;67.06;99208.44;1087326;54;19994;-80
2023/08/29 00:07:14;;;;;;;;;;;;;;;16.29;66.95;99200.97;1087674;54;19950;-79
2023/08/29 00:08:18;;;;;;;;;;;;;;;16.31;67.04;99208.84;1087534;54;19950;-80
2023/08/29 00:09:18;;;;;;;;;;;;;;;16.31;66.70;99209.69;1087327;47;19939;-80
2023/08/29 00:10:22;;;;;;;;;;;;;;;16.33;66.65;99204.94;1087212;54;19947;-80
2023/08/29 00:11:23;;;;;;;;;;;;;;;16.36;66.51;99204.53;1087331;54;20021;-79
2023/08/29 00:12:26;;;;;;;;;;;;;;;16.35;66.79;99202.84;1087333;47;19943;-80
2023/08/29 00:13:27;;;;;;;;;;;;;;;16.36;66.55;99199.13;1087324;54;19943;-79
2023/08/29 00:14:33;;;;;;;;;;;;;;;16.35;66.57;99210.94;1087266;47;19942;-79
2023/08/29 00:15:34;;;;;;;;;;;;;;;16.32;66.74;99211.38;1087207;47;19962;-79
2023/08/29 00:16:38;;;;;;;;;;;;;;;16.29;67.04;99209.06;1087304;54;19949;-79
2023/08/29 00:17:39;;;;;;;;;;;;;;;16.29;66.89;99214.47;1087281;54;19950;-80
2023/08/29 00:18:42;;;;;;;;;;;;;;;16.27;66.98;99221.09;1087299;54;19973;-80
2023/08/29 00:19:43;;;;;;;;;;;;;;;16.23;66.99;99220.66;1087266;54;19942;-79
2023/08/29 00:20:46;;;;;;;;;;;;;;;16.20;67.34;99223.75;1087234;54;19973;-79
2023/08/29 00:21:47;;;;;;;;;;;;;;;16.18;67.09;99228.53;1087282;54;19943;-79
2023/08/29 00:22:51;;;;;;;;;;;;;;;16.11;67.57;99224.97;1087267;54;19942;-78
2023/08/29 00:23:52;;;;;;;;;;;;;;;16.13;67.36;99228.31;1087215;54;19942;-79
2023/08/29 00:24:56;;;;;;;;;;;;;;;16.14;67.38;99222.69;1087265;46;19938;-79
2023/08/29 00:25:57;;;;;;;;;;;;;;;16.22;67.10;99227.09;1087343;54;19951;-80
2023/08/29 00:27:00;;;;;;;;;;;;;;;16.23;67.34;99223.38;1087560;54;19946;-80
2023/08/29 00:28:01;;;;;;;;;;;;;;;16.18;67.10;99223.97;1087205;54;19994;-80
2023/08/29 00:29:05;;;;;;;;;;;;;;;16.14;67.74;99227.28;1087264;47;19942;-79
2023/08/29 00:30:09;;;;;;;;;;;;;;;16.21;67.24;99220.03;1087263;54;19938;-79
2023/08/29 00:31:12;;;;;;;;;;;;;;;16.23;67.07;99223.38;1087335;54;19955;-79
2023/08/29 00:32:13;;;;;;;;;;;;;;;16.27;67.03;99224.63;1087223;47;19946;-79
2023/08/29 00:33:19;;;;;;;;;;;;;;;16.30;67.06;99226.06;1087242;47;19943;-79
2023/08/29 00:34:19;;;;;;;;;;;;;;;16.30;66.61;99213.44;1087218;47;19955;-79
2023/08/29 00:35:24;;;;;;;;;;;;;;;16.34;66.91;99220.06;1087248;47;19950;-80
2023/08/29 00:36:25;;;;;;;;;;;;;;;16.35;66.79;99221.72;1087207;54;19950;-79
2023/08/29 00:37:29;;;;;;;;;;;;;;;16.37;66.68;99225.06;1087518;54;19951;-79
2023/08/29 00:38:29;;;;;;;;;;;;;;;16.40;66.75;99223.00;1087166;54;19966;-79
2023/08/29 00:39:33;;;;;;;;;;;;;;;16.40;66.77;99228.41;1087214;47;19943;-78
2023/08/29 00:40:35;;;;;;;;;;;;;;;16.43;66.42;99222.59;1087212;54;19950;-78
2023/08/29 00:41:38;;;;;;;;;;;;;;;16.42;66.77;99226.34;1087091;47;19966;-80
2023/08/29 00:42:39;;;;;;;;;;;;;;;16.42;66.89;99229.03;1087734;46;19958;-79
2023/08/29 00:43:42;;;;;;;;;;;;;;;16.35;67.11;99235.22;1087188;54;20332;-78
2023/08/29 00:44:43;;;;;;;;;;;;;;;16.27;67.07;99235.41;1087393;54;19950;-79
2023/08/29 00:45:48;;;;;;;;;;;;;;;16.21;67.16;99226.25;1087195;47;19972;-78
2023/08/29 00:46:52;;;;;;;;;;;;;;;16.15;67.41;99228.94;1087137;54;19969;-79
2023/08/29 00:47:52;;;;;;;;;;;;;;;16.17;67.75;99234.94;1087170;47;19995;-78
2023/08/29 00:48:56;;;;;;;;;;;;;;;16.14;67.31;99232.66;1087209;54;19942;-80
2023/08/29 00:49:58;;;;;;;;;;;;;;;16.08;67.86;99236.16;1087117;47;20015;-79
2023/08/29 00:50:59;;;;;;;;;;;;;;;16.10;67.89;99236.78;1087174;47;19938;-79
2023/08/29 00:52:03;;;;;;;;;;;;;;;16.14;67.54;99238.06;1087127;47;19994;-79
2023/08/29 00:53:04;;;;;;;;;;;;;;;16.13;67.50;99234.50;1087293;47;19950;-80
2023/08/29 00:54:09;;;;;;;;;;;;;;;16.17;67.25;99243.03;1087261;54;20462;-79
2023/08/29 00:55:10;;;;;;;;;;;;;;;16.20;67.47;99239.94;1087170;54;20000;-79
2023/08/29 00:56:17;;;;;;;;;;;;;;;16.25;66.97;99232.06;1087527;54;19954;-79
2023/08/29 00:57:18;;;;;;;;;;;;;;;16.26;67.10;99231.03;1087315;47;19981;-79
2023/08/29 00:58:21;;;;;;;;;;;;;;;16.27;67.24;99234.56;1087076;47;19950;-79
2023/08/29 00:59:22;;;;;;;;;;;;;;;16.25;67.20;99231.25;1087093;47;19973;-79
2023/08/29 01:00:26;;;;;;;;;;;;;;;16.28;67.09;99234.38;1087138;47;19939;-79
2023/08/29 01:01:30;;;;;;;;;;;;;;;16.30;67.07;99235.00;1087009;47;19967;-79
2023/08/29 01:02:34;;;;;;;;;;;;;;;16.31;66.79;99241.22;1087061;54;19942;-79
2023/08/29 01:03:35;;;;;;;;;;;;;;;16.34;66.93;99243.53;1087108;47;19995;-79
2023/08/29 01:04:39;;;;;;;;;;;;;;;16.25;67.24;99239.34;1087102;47;19957;-79
2023/08/29 01:05:40;;;;;;;;;;;;;;;16.18;67.37;99234.75;1087056;54;19942;-79
2023/08/29 01:06:43;;;;;;;;;;;;;;;16.21;67.04;99233.53;1087305;54;19947;-79
2023/08/29 01:07:44;;;;;;;;;;;;;;;16.21;67.41;99228.13;1087354;54;19951;-78
2023/08/29 01:08:48;;;;;;;;;;;;;;;16.24;66.91;99230.44;1087078;54;19974;-79
2023/08/29 01:09:49;;;;;;;;;;;;;;;16.22;66.99;99227.09;1087197;54;19994;-78
2023/08/29 01:10:55;;;;;;;;;;;;;;;16.25;66.96;99226.66;1087071;47;19951;-79
2023/08/29 01:12:01;;;;;;;;;;;;;;;16.28;66.94;99236.25;1087031;47;19950;-80
2023/08/29 01:13:08;;;;;;;;;;;;;;;16.28;66.82;99228.97;1087146;54;19994;-79
2023/08/29 01:14:14;;;;;;;;;;;;;;;16.21;67.33;99225.44;1087174;47;19973;-78
2023/08/29 01:15:19;;;;;;;;;;;;;;;16.22;66.91;99227.09;1087015;54;19954;-79
2023/08/29 01:16:25;;;;;;;;;;;;;;;16.25;66.87;99226.66;1087048;47;19938;-79
2023/08/29 01:17:31;;;;;;;;;;;;;;;16.25;66.80;99217.75;1087012;51;19942;-79
2023/08/29 01:18:35;;;;;;;;;;;;;;;16.20;66.90;99223.75;1087129;54;19942;-79
2023/08/29 01:19:39;;;;;;;;;;;;;;;16.12;67.43;99222.06;1087096;47;19942;-79
2023/08/29 01:20:40;;;;;;;;;;;;;;;16.14;67.16;99225.41;1086922;47;19942;-79
2023/08/29 01:21:48;;;;;;;;;;;;;;;16.12;67.25;99221.25;1086976;47;19950;-79
2023/08/29 01:22:54;;;;;;;;;;;;;;;16.16;67.33;99214.41;1087040;47;19939;-78
2023/08/29 01:24:06;;;;;;;;;;;;;;;16.13;67.08;99220.22;1086975;54;20007;-79
2023/08/29 01:25:12;;;;;;;;;;;;;;;16.11;67.65;99222.28;1087224;54;19950;-79
2023/08/29 01:26:20;;;;;;;;;;;;;;;16.13;67.18;99220.22;1087427;54;20015;-79
2023/08/29 01:27:21;;;;;;;;;;;;;;;16.16;67.16;99217.09;1087069;47;19950;-79
2023/08/29 01:28:22;;;;;;;;;;;;;;;16.18;67.13;99213.19;1087074;54;19939;-79
2023/08/29 01:29:26;;;;;;;;;;;;;;;16.20;67.23;99213.78;1087090;54;19943;-79
2023/08/29 01:30:27;;;;;;;;;;;;;;;16.12;66.94;99218.56;1087015;54;20863;-79
2023/08/29 01:31:31;;;;;;;;;;;;;;;16.04;67.59;99209.59;1087061;47;19954;-79
2023/08/29 01:32:32;;;;;;;;;;;;;;;16.04;67.61;99209.59;1087151;47;19978;-80
2023/08/29 01:33:38;;;;;;;;;;;;;;;16.06;67.67;99218.31;1087084;51;19947;-79
2023/08/29 01:34:42;;;;;;;;;;;;;;;16.04;68.06;99212.31;1087068;47;19973;-80
2023/08/29 01:35:47;;;;;;;;;;;;;;;16.03;67.58;99210.63;1086898;54;19943;-79
2023/08/29 01:36:48;;;;;;;;;;;;;;;16.01;67.86;99211.88;1086831;54;19938;-79
2023/08/29 01:37:52;;;;;;;;;;;;;;;15.97;67.97;99210.59;1087075;47;19946;-78
2023/08/29 01:38:52;;;;;;;;;;;;;;;16.02;67.50;99214.38;1087297;54;19943;-78
2023/08/29 01:39:56;;;;;;;;;;;;;;;15.98;67.82;99213.09;1087307;54;19943;-79
2023/08/29 01:40:57;;;;;;;;;;;;;;;16.03;67.60;99221.41;1087001;47;19943;-79
2023/08/29 01:42:03;;;;;;;;;;;;;;;16.01;67.75;99220.78;1087095;47;19942;-79
2023/08/29 01:43:04;;;;;;;;;;;;;;;16.02;67.79;99224.28;1087062;47;19947;-79
2023/08/29 01:44:07;;;;;;;;;;;;;;;15.94;68.16;99219.94;1086963;54;19942;-80
2023/08/29 01:45:08;;;;;;;;;;;;;;;15.98;68.25;99214.97;1087114;54;19947;-79
2023/08/29 01:46:12;;;;;;;;;;;;;;;15.97;68.12;99214.13;1087185;54;20021;-80
2023/08/29 01:47:13;;;;;;;;;;;;;;;15.90;68.30;99213.25;1087619;54;19942;-79
2023/08/29 01:48:14;;;;;;;;;;;;;;;15.89;68.35;99219.69;1087068;47;19970;-79
2023/08/29 01:49:17;;;;;;;;;;;;;;;15.96;67.82;99215.19;1087026;54;19942;-79
2023/08/29 01:50:20;;;;;;;;;;;;;;;15.98;67.80;99214.97;1086962;51;19958;-79
2023/08/29 01:51:24;;;;;;;;;;;;;;;15.96;68.18;99209.78;1087047;54;19942;-80
2023/08/29 01:52:25;;;;;;;;;;;;;;;15.97;68.13;99208.72;1087028;47;19942;-80
2023/08/29 01:53:29;;;;;;;;;;;;;;;16.00;68.13;99208.34;1087169;47;19942;-79
2023/08/29 01:54:29;;;;;;;;;;;;;;;15.98;68.21;99204.19;1086982;47;19943;-79
2023/08/29 01:55:33;;;;;;;;;;;;;;;15.95;68.63;99200.03;1087046;54;19942;-79
2023/08/29 01:56:34;;;;;;;;;;;;;;;15.90;68.66;99203.31;1087016;47;19966;-79
2023/08/29 01:57:38;;;;;;;;;;;;;;;15.88;69.15;99207.22;1086892;54;21340;-79
2023/08/29 01:58:42;;;;;;;;;;;;;;;15.84;69.30;99197.91;1086901;54;19939;-79
2023/08/29 01:59:44;;;;;;;;;;;;;;;15.81;69.68;99203.66;1087052;47;19943;-79
2023/08/29 02:00:48;;;;;;;;;;;;;;;15.78;69.74;99199.50;1086798;47;19942;-79
2023/08/29 02:01:49;;;;;;;;;;;;;;;15.73;69.93;99193.84;1087022;54;19947;-79
2023/08/29 02:02:52;;;;;;;;;;;;;;;15.75;70.18;99199.88;1086987;54;19956;-79
2023/08/29 02:03:53;;;;;;;;;;;;;;;15.73;70.08;99202.78;1087014;54;19946;-79
2023/08/29 02:04:57;;;;;;;;;;;;;;;15.70;70.15;99203.19;1086953;47;19946;-79
2023/08/29 02:06:01;;;;;;;;;;;;;;;15.70;70.29;99197.78;1086970;47;19942;-79
2023/08/29 02:07:08;;;;;;;;;;;;;;;15.70;70.06;99200.47;1087165;54;19950;-79
2023/08/29 02:08:10;;;;;;;;;;;;;;;15.70;70.27;99197.78;1086991;54;20390;-80
2023/08/29 02:09:13;;;;;;;;;;;;;;;15.72;70.26;99203.00;1086987;54;19973;-79
2023/08/29 02:10:14;;;;;;;;;;;;;;;15.70;70.10;99203.19;1087009;54;20018;-79
2023/08/29 02:11:17;;;;;;;;;;;;;;;15.70;70.18;99205.06;1087194;54;19950;-79
2023/08/29 02:12:18;;;;;;;;;;;;;;;15.72;69.88;99208.38;1087198;54;19954;-78
2023/08/29 02:13:24;;;;;;;;;;;;;;;15.73;69.78;99205.47;1086950;47;20339;-79
2023/08/29 02:14:24;;;;;;;;;;;;;;;15.76;69.94;99206.94;1087135;47;19969;-79
2023/08/29 02:15:28;;;;;;;;;;;;;;;15.75;69.71;99202.56;1087235;47;19950;-79
2023/08/29 02:16:31;;;;;;;;;;;;;;;15.75;69.92;99205.28;1087377;51;19965;-78
2023/08/29 02:17:36;;;;;;;;;;;;;;;15.74;69.93;99204.47;1087308;47;19951;-80
2023/08/29 02:18:37;;;;;;;;;;;;;;;15.74;69.57;99199.06;1087335;47;19966;-79
2023/08/29 02:19:40;;;;;;;;;;;;;;;15.71;69.73;99196.75;1091330;39;20356;-78
2023/08/29 02:20:41;;;;;;;;;;;;;;;15.69;69.85;99196.13;1087667;39;20321;-78
2023/08/29 02:21:47;;;;;;;;;;;;;;;15.72;70.05;99203.81;1087353;47;19950;-79
2023/08/29 02:22:48;;;;;;;;;;;;;;;15.72;69.81;99198.44;1087421;54;20039;-79
2023/08/29 02:23:51;;;;;;;;;;;;;;;15.73;69.72;99201.94;1087241;54;19942;-78
2023/08/29 02:24:52;;;;;;;;;;;;;;;15.74;69.92;99199.06;1087305;54;19942;-79
2023/08/29 02:25:59;;;;;;;;;;;;;;;15.78;69.69;99198.66;1087263;47;19966;-79
2023/08/29 02:27:04;;;;;;;;;;;;;;;15.82;69.43;99198.03;1087368;54;19950;-80
2023/08/29 02:28:05;;;;;;;;;;;;;;;15.80;69.55;99192.06;1087313;54;19943;-79
2023/08/29 02:29:10;;;;;;;;;;;;;;;15.80;69.38;99193.91;1087384;54;19974;-79
2023/08/29 02:30:12;;;;;;;;;;;;;;;15.82;69.35;99189.16;1088742;39;20187;-80
2023/08/29 02:31:15;;;;;;;;;;;;;;;15.79;69.47;99184.16;1091911;39;20279;-80
2023/08/29 02:32:17;;;;;;;;;;;;;;;15.79;69.55;99185.00;1087501;54;19943;-79
2023/08/29 02:33:21;;;;;;;;;;;;;;;15.74;69.40;99177.50;1087573;47;19965;-80
2023/08/29 02:34:22;;;;;;;;;;;;;;;15.71;69.92;99183.28;1087619;47;19942;-79
2023/08/29 02:35:25;;;;;;;;;;;;;;;15.69;69.79;99179.97;1087481;54;19950;-79
2023/08/29 02:36:26;;;;;;;;;;;;;;;15.69;70.00;99182.66;1087577;54;19942;-79
2023/08/29 02:37:29;;;;;;;;;;;;;;;15.71;69.82;99183.28;1087913;54;19943;-79
2023/08/29 02:38:32;;;;;;;;;;;;;;;15.70;69.93;99186.19;1087441;54;19947;-79
2023/08/29 02:39:35;;;;;;;;;;;;;;;15.69;69.74;99184.53;1087337;47;19943;-79
2023/08/29 02:40:38;;;;;;;;;;;;;;;15.70;69.99;99189.72;1087329;54;19942;-79
2023/08/29 02:41:41;;;;;;;;;;;;;;;15.69;69.95;99189.91;1087332;47;20346;-79
2023/08/29 02:42:43;;;;;;;;;;;;;;;15.69;69.90;99188.03;1087233;54;19954;-78
2023/08/29 02:43:46;;;;;;;;;;;;;;;15.68;70.17;99189.06;1087365;47;20274;-79
2023/08/29 02:44:50;;;;;;;;;;;;;;;15.64;70.01;99187.81;1087269;54;19951;-80
2023/08/29 02:45:53;;;;;;;;;;;;;;;15.66;69.98;99185.75;1087399;54;20003;-78
2023/08/29 02:46:54;;;;;;;;;;;;;;;15.68;70.27;99186.38;1087307;54;19943;-79
2023/08/29 02:47:57;;;;;;;;;;;;;;;15.68;70.25;99183.69;1087302;54;19942;-80
2023/08/29 02:48:58;;;;;;;;;;;;;;;15.69;70.24;99187.22;1087395;47;19978;-79
2023/08/29 02:50:03;;;;;;;;;;;;;;;15.67;70.21;99192.81;1087345;47;19943;-79
2023/08/29 02:51:04;;;;;;;;;;;;;;;15.64;70.05;99186.97;1087337;54;19943;-79
2023/08/29 02:52:07;;;;;;;;;;;;;;;15.66;70.22;99185.75;1087281;47;19953;-80
2023/08/29 02:53:08;;;;;;;;;;;;;;;15.68;70.17;99178.28;1087274;54;19943;-79
2023/08/29 02:54:13;;;;;;;;;;;;;;;15.66;70.22;99183.06;1087475;54;19943;-79
2023/08/29 02:55:13;;;;;;;;;;;;;;;15.65;69.99;99176.00;1087132;47;19945;-79
2023/08/29 02:56:17;;;;;;;;;;;;;;;15.64;69.94;99182.44;1087233;47;19942;-79
2023/08/29 02:57:17;;;;;;;;;;;;;;;15.68;70.10;99178.28;1087298;54;19943;-79
2023/08/29 02:58:21;;;;;;;;;;;;;;;15.71;69.64;99179.78;1087535;54;19966;-79
2023/08/29 02:59:22;;;;;;;;;;;;;;;15.73;69.68;99170.47;1088067;39;20256;-79
2023/08/29 03:00:28;;;;;;;;;;;;;;;15.74;69.89;99173.97;1087442;54;19950;-78
2023/08/29 03:01:28;;;;;;;;;;;;;;;15.76;69.81;99163.81;1087532;54;19942;-79
2023/08/29 03:02:32;;;;;;;;;;;;;;;15.74;69.94;99172.13;1087205;47;19946;-79
2023/08/29 03:03:33;;;;;;;;;;;;;;;15.71;70.01;99169.81;1087244;47;19960;-79
2023/08/29 03:04:36;;;;;;;;;;;;;;;15.75;70.01;99173.78;1087278;54;19998;-78
2023/08/29 03:05:38;;;;;;;;;;;;;;;15.74;69.57;99172.13;1087380;54;19942;-79
2023/08/29 03:06:41;;;;;;;;;;;;;;;15.72;69.76;99167.97;1087276;47;19955;-78
2023/08/29 03:07:42;;;;;;;;;;;;;;;15.70;69.86;99172.72;1087231;54;19942;-78
2023/08/29 03:08:45;;;;;;;;;;;;;;;15.67;70.11;99173.97;1087186;47;19957;-78
2023/08/29 03:09:46;;;;;;;;;;;;;;;15.67;70.30;99175.81;1087106;47;20018;-78
2023/08/29 03:10:50;;;;;;;;;;;;;;;15.64;70.46;99170.81;1087030;47;19949;-79
2023/08/29 03:11:51;;;;;;;;;;;;;;;15.65;70.09;99172.47;1087270;46;20272;-78
2023/08/29 03:12:54;;;;;;;;;;;;;;;15.65;70.42;99167.94;1087293;54;19943;-79
2023/08/29 03:13:55;;;;;;;;;;;;;;;15.63;70.64;99172.69;1087166;47;20002;-79
2023/08/29 03:14:59;;;;;;;;;;;;;;;15.61;70.48;99166.66;1087204;54;20009;-78
2023/08/29 03:16:10;;;;;;;;;;;;;;;15.62;70.37;99165.63;1087085;54;19966;-79
2023/08/29 03:17:13;;;;;;;;;;;;;;;15.64;70.27;99170.81;1087324;54;20016;-79
2023/08/29 03:18:14;;;;;;;;;;;;;;;15.64;70.15;99171.66;1087460;54;20078;-78
2023/08/29 03:19:18;;;;;;;;;;;;;;;15.65;70.35;99172.47;1087256;47;19947;-79
2023/08/29 03:20:19;;;;;;;;;;;;;;;15.64;70.45;99171.66;1087335;54;20022;-78
2023/08/29 03:21:19;;;;;;;;;;;;;;;15.62;70.64;99167.50;1087411;54;19957;-78
2023/08/29 03:22:23;;;;;;;;;;;;;;;15.63;70.30;99161.09;1087151;54;19942;-78
2023/08/29 03:23:24;;;;;;;;;;;;;;;15.60;70.66;99165.00;1087294;47;19942;-79
2023/08/29 03:24:27;;;;;;;;;;;;;;;15.62;70.65;99162.94;1087222;47;19995;-79
2023/08/29 03:25:29;;;;;;;;;;;;;;;15.57;70.61;99155.44;1087235;54;19962;-79
2023/08/29 03:26:32;;;;;;;;;;;;;;;15.55;70.85;99162.91;1087207;47;19947;-78
2023/08/29 03:27:33;;;;;;;;;;;;;;;15.59;70.86;99158.78;1087278;54;19974;-78
2023/08/29 03:28:37;;;;;;;;;;;;;;;15.58;71.06;99151.72;1087248;47;19942;-79
2023/08/29 03:29:38;;;;;;;;;;;;;;;15.55;70.72;99160.19;1087225;46;20077;-78
2023/08/29 03:30:41;;;;;;;;;;;;;;;15.55;71.08;99157.50;1087151;54;20025;-78
2023/08/29 03:31:45;;;;;;;;;;;;;;;15.52;71.03;99154.38;1087215;51;19994;-79
2023/08/29 03:32:50;;;;;;;;;;;;;;;15.51;71.54;99155.41;1087120;51;19942;-79
2023/08/29 03:33:50;;;;;;;;;;;;;;;15.48;71.35;99147.75;1088597;39;20340;-78
2023/08/29 03:34:54;;;;;;;;;;;;;;;15.50;71.21;99142.97;1087132;47;19958;-80
2023/08/29 03:35:58;;;;;;;;;;;;;;;15.50;71.24;99146.50;1087107;46;20024;-79
2023/08/29 03:37:01;;;;;;;;;;;;;;;15.53;71.27;99150.66;1087017;54;19949;-80
2023/08/29 03:38:02;;;;;;;;;;;;;;;15.51;71.23;99144.63;1087227;47;19943;-79
2023/08/29 03:39:06;;;;;;;;;;;;;;;15.53;71.23;99154.19;1087117;47;19943;-78
2023/08/29 03:40:08;;;;;;;;;;;;;;;15.54;71.35;99145.06;1087330;54;19943;-79
2023/08/29 03:41:11;;;;;;;;;;;;;;;15.54;71.21;99149.63;1087433;54;19981;-78
2023/08/29 03:42:12;;;;;;;;;;;;;;;15.52;71.37;99141.75;1087178;47;19966;-78
2023/08/29 03:43:15;;;;;;;;;;;;;;;15.53;71.21;99142.59;1087273;54;19946;-78
2023/08/29 03:44:17;;;;;;;;;;;;;;;15.54;71.07;99145.06;1087474;54;19942;-78
2023/08/29 03:45:21;;;;;;;;;;;;;;;15.52;71.43;99149.00;1087086;47;19946;-79
2023/08/29 03:46:21;;;;;;;;;;;;;;;15.47;71.44;99144.19;1087230;54;19966;-78
2023/08/29 03:47:27;;;;;;;;;;;;;;;15.49;71.75;99158.31;1087196;54;19943;-78
2023/08/29 03:48:28;;;;;;;;;;;;;;;15.52;71.47;99154.38;1087677;39;20264;-78
2023/08/29 03:49:32;;;;;;;;;;;;;;;15.50;71.53;99151.03;1087221;54;20047;-79
2023/08/29 03:50:32;;;;;;;;;;;;;;;15.54;71.18;99155.03;1087485;54;19942;-79
2023/08/29 03:51:36;;;;;;;;;;;;;;;15.57;71.19;99146.56;1087231;47;19971;-79
2023/08/29 03:52:37;;;;;;;;;;;;;;;15.55;71.06;99152.13;1087304;54;19966;-79
2023/08/29 03:53:40;;;;;;;;;;;;;;;15.54;71.48;99150.44;1087258;47;20409;-78
2023/08/29 03:54:43;;;;;;;;;;;;;;;15.56;71.42;99152.97;1087179;47;20038;-78
2023/08/29 03:55:46;;;;;;;;;;;;;;;15.58;71.34;99151.72;1086996;47;19958;-79
2023/08/29 03:56:48;;;;;;;;;;;;;;;15.60;71.21;99159.59;1087197;47;20015;-79
2023/08/29 03:57:53;;;;;;;;;;;;;;;15.63;70.79;99156.53;1087182;47;19948;-78
2023/08/29 03:58:53;;;;;;;;;;;;;;;15.57;70.95;99152.75;1087166;54;19947;-78
2023/08/29 03:59:57;;;;;;;;;;;;;;;15.58;71.49;99154.41;1087438;54;19946;-79
2023/08/29 04:00:58;;;;;;;;;;;;;;;15.56;71.10;99158.34;1087124;47;19951;-79
2023/08/29 04:02:05;;;;;;;;;;;;;;;15.53;71.08;99154.19;1087216;47;19947;-79
2023/08/29 04:03:09;;;;;;;;;;;;;;;15.56;71.28;99156.47;1087132;47;19966;-79
2023/08/29 04:04:13;;;;;;;;;;;;;;;15.59;71.27;99163.31;1087206;54;19950;-79
2023/08/29 04:05:14;;;;;;;;;;;;;;;15.64;70.86;99160.88;1087205;54;19966;-78
2023/08/29 04:06:21;;;;;;;;;;;;;;;15.68;70.98;99162.13;1087046;47;19942;-79
2023/08/29 04:07:22;;;;;;;;;;;;;;;15.72;70.55;99152.63;1087121;54;19942;-79
2023/08/29 04:08:26;;;;;;;;;;;;;;;15.74;70.74;99157.81;1087469;54;19944;-78
2023/08/29 04:09:27;;;;;;;;;;;;;;;15.80;70.39;99161.56;1087495;54;19943;-78
2023/08/29 04:10:30;;;;;;;;;;;;;;;15.84;70.45;99149.41;1087128;47;20038;-79
2023/08/29 04:11:31;;;;;;;;;;;;;;;15.84;70.38;99154.78;1087170;47;19981;-79
2023/08/29 04:12:34;;;;;;;;;;;;;;;15.84;70.27;99154.78;1087058;47;19942;-78
2023/08/29 04:13:35;;;;;;;;;;;;;;;15.88;69.86;99150.63;1087189;47;19942;-79
2023/08/29 04:14:39;;;;;;;;;;;;;;;15.89;70.10;99153.16;1087183;47;19969;-78
2023/08/29 04:15:40;;;;;;;;;;;;;;;15.85;70.14;99146.50;1087172;47;19946;-79
2023/08/29 04:16:44;;;;;;;;;;;;;;;15.78;70.34;99152.84;1087112;54;19943;-78
2023/08/29 04:17:45;;;;;;;;;;;;;;;15.73;70.23;99151.59;1087451;54;19943;-78
2023/08/29 04:18:51;;;;;;;;;;;;;;;15.75;70.35;99151.38;1087093;47;19942;-79
2023/08/29 04:19:52;;;;;;;;;;;;;;;15.81;70.35;99155.16;1090670;39;20288;-79
2023/08/29 04:20:55;;;;;;;;;;;;;;;15.81;70.09;99155.16;1087081;54;19949;-79
2023/08/29 04:21:56;;;;;;;;;;;;;;;15.78;70.25;99155.53;1087153;46;19994;-78
2023/08/29 04:23:03;;;;;;;;;;;;;;;15.83;70.20;99153.09;1087220;54;19942;-79
2023/08/29 04:24:04;;;;;;;;;;;;;;;15.76;70.40;99153.06;1087143;47;19939;-78
2023/08/29 04:25:08;;;;;;;;;;;;;;;15.72;70.75;99147.25;1087147;54;19966;-79
2023/08/29 04:26:09;;;;;;;;;;;;;;;15.77;70.22;99149.34;1087112;47;19938;-79
2023/08/29 04:27:13;;;;;;;;;;;;;;;15.81;70.38;99150.59;1087057;54;19951;-79
2023/08/29 04:28:19;;;;;;;;;;;;;;;15.83;70.05;99153.09;1087122;47;19995;-79
2023/08/29 04:29:20;;;;;;;;;;;;;;;15.84;70.18;99154.78;1087110;54;19942;-79
2023/08/29 04:30:24;;;;;;;;;;;;;;;15.86;70.19;99155.41;1087226;47;19950;-79
2023/08/29 04:31:25;;;;;;;;;;;;;;;15.89;69.93;99146.91;1087086;47;19950;-79
2023/08/29 04:32:33;;;;;;;;;;;;;;;15.88;70.10;99150.63;1087164;47;19943;-78
2023/08/29 04:33:34;;;;;;;;;;;;;;;15.89;70.03;99152.31;1087294;54;19947;-78
2023/08/29 04:34:40;;;;;;;;;;;;;;;15.85;70.19;99151.06;1087357;54;19942;-79
2023/08/29 04:35:42;;;;;;;;;;;;;;;15.82;70.21;99152.25;1087203;54;19943;-78
2023/08/29 04:36:45;;;;;;;;;;;;;;;15.83;70.34;99153.09;1087166;54;19966;-80
2023/08/29 04:37:46;;;;;;;;;;;;;;;15.79;70.25;99155.34;1087238;46;19946;-79
2023/08/29 04:38:50;;;;;;;;;;;;;;;15.78;70.10;99155.53;1087150;54;19943;-78
2023/08/29 04:39:51;;;;;;;;;;;;;;;15.70;70.58;99154.69;1088900;39;20253;-78
2023/08/29 04:40:55;;;;;;;;;;;;;;;15.71;70.77;99153.66;1087085;54;19943;-78
2023/08/29 04:41:56;;;;;;;;;;;;;;;15.74;70.64;99161.34;1087095;47;20002;-79
2023/08/29 04:42:59;;;;;;;;;;;;;;;15.75;70.40;99149.53;1087148;47;20036;-78
2023/08/29 04:44:00;;;;;;;;;;;;;;;15.81;70.26;99155.16;1087071;47;19962;-78
2023/08/29 04:45:06;;;;;;;;;;;;;;;15.81;70.43;99156.00;1087159;47;19966;-78
2023/08/29 04:46:07;;;;;;;;;;;;;;;15.86;70.40;99152.72;1086939;47;19942;-78
2023/08/29 04:47:11;;;;;;;;;;;;;;;15.87;70.07;99149.00;1087022;47;20421;-78
2023/08/29 04:48:12;;;;;;;;;;;;;;;15.89;69.91;99149.59;1087029;47;19998;-78
2023/08/29 04:49:15;;;;;;;;;;;;;;;15.88;70.03;99145.25;1087191;54;19945;-78
2023/08/29 04:50:20;;;;;;;;;;;;;;;15.89;69.96;99152.31;1087031;47;19947;-78
2023/08/29 04:51:22;;;;;;;;;;;;;;;15.89;70.15;99153.16;1087082;54;19950;-78
2023/08/29 04:52:26;;;;;;;;;;;;;;;15.94;69.95;99147.16;1087252;54;19943;-78
2023/08/29 04:53:27;;;;;;;;;;;;;;;15.88;70.17;99147.94;1087391;54;19943;-78
2023/08/29 04:54:30;;;;;;;;;;;;;;;15.86;70.26;99147.34;1087361;54;19943;-79
2023/08/29 04:55:31;;;;;;;;;;;;;;;15.89;70.03;99155.84;1087295;54;19943;-78
2023/08/29 04:56:34;;;;;;;;;;;;;;;15.86;70.25;99150.84;1087034;47;19946;-77
2023/08/29 04:57:35;;;;;;;;;;;;;;;15.88;70.06;99147.94;1087014;46;19942;-78
2023/08/29 04:58:39;;;;;;;;;;;;;;;15.93;69.99;99147.34;1087018;47;19966;-78
2023/08/29 04:59:40;;;;;;;;;;;;;;;15.76;70.32;99155.75;1087077;47;19942;-78
2023/08/29 05:00:43;;;;;;;;;;;;;;;15.85;70.17;99151.06;1087097;54;19949;-78
2023/08/29 05:01:44;;;;;;;;;;;;;;;15.86;70.05;99152.72;1087140;47;19946;-78
2023/08/29 05:02:48;;;;;;;;;;;;;;;15.88;70.07;99146.09;1087003;47;19943;-78
2023/08/29 05:03:49;;;;;;;;;;;;;;;15.93;69.96;99147.34;1088032;39;20670;-79
2023/08/29 05:04:52;;;;;;;;;;;;;;;15.83;70.37;99145.00;1085958;54;19957;-79
2023/08/29 05:05:57;;;;;;;;;;;;;;;15.83;70.50;99150.38;1083910;47;19974;-78
2023/08/29 05:07:01;;;;;;;;;;;;;;;15.88;70.39;99145.25;1085269;54;19981;-79
2023/08/29 05:08:04;;;;;;;;;;;;;;;15.90;70.33;99137.81;1084596;47;19970;-79
2023/08/29 05:09:09;;;;;;;;;;;;;;;15.87;70.02;99144.44;1083879;47;19947;-79
2023/08/29 05:10:10;;;;;;;;;;;;;;;15.85;70.05;99145.66;1084252;31;20437;-78
2023/08/29 05:11:13;;;;;;;;;;;;;;;15.82;70.41;99138.75;1084026;51;19974;-79
2023/08/29 05:12:14;;;;;;;;;;;;;;;15.88;70.16;99139.84;1084237;47;19970;-79
2023/08/29 05:13:17;;;;;;;;;;;;;;;15.89;70.02;99138.81;1084608;39;20715;-79
2023/08/29 05:14:18;;;;;;;;;;;;;;;15.88;70.49;99139.84;1084152;47;19957;-79
2023/08/29 05:15:21;;;;;;;;;;;;;;;15.90;70.42;99137.81;1086079;54;19967;-78
2023/08/29 05:16:22;;;;;;;;;;;;;;;15.89;70.40;99136.97;1085188;54;19954;-78
2023/08/29 05:17:26;;;;;;;;;;;;;;;15.83;70.31;99145.00;1085673;47;19946;-79
2023/08/29 05:18:28;;;;;;;;;;;;;;;15.74;70.51;99152.41;1085414;47;19946;-78
2023/08/29 05:19:34;;;;;;;;;;;;;;;15.75;70.53;99146.00;1085717;47;19954;-79
2023/08/29 05:20:36;;;;;;;;;;;;;;;15.72;70.43;99149.13;1085054;47;19946;-79
2023/08/29 05:21:42;;;;;;;;;;;;;;;15.81;70.29;99142.53;1085569;54;19995;-78
2023/08/29 05:22:44;;;;;;;;;;;;;;;15.69;71.05;99147.63;1084568;47;20482;-78
2023/08/29 05:23:48;;;;;;;;;;;;;;;15.68;70.95;99140.56;1084936;54;19957;-80
2023/08/29 05:24:48;;;;;;;;;;;;;;;15.73;70.59;99143.50;1085609;54;19950;-78
2023/08/29 05:25:52;;;;;;;;;;;;;;;15.61;71.15;99147.81;1085660;54;19968;-78
2023/08/29 05:26:53;;;;;;;;;;;;;;;15.62;71.07;99144.06;1085348;47;20531;-78
2023/08/29 05:27:56;;;;;;;;;;;;;;;15.59;71.20;99148.00;1086642;54;19950;-78